createdAt,value
2022-08-11T00:01:31.805Z,6.90
2022-08-11T00:04:03.975Z,5.00
2022-08-11T00:06:36.660Z,9.40
2022-08-11T00:09:12.124Z,6.10
2022-08-11T00:11:59.727Z,4.40
2022-08-11T00:14:36.879Z,4.40
2022-08-11T00:17:15.082Z,5.00
2022-08-11T00:20:11.664Z,5.80
2022-08-11T00:22:44.139Z,5.30
2022-08-11T00:25:19.650Z,5.70
2022-08-11T00:27:52.503Z,5.40
2022-08-11T00:30:21.173Z,6.70
2022-08-11T00:32:59.105Z,7.10
2022-08-11T00:35:54.681Z,5.40
2022-08-11T00:38:26.655Z,11.50
2022-08-11T00:41:07.469Z,6.50
2022-08-11T00:44:10.877Z,6.50
2022-08-11T00:47:03.725Z,12.50
2022-08-11T00:49:58.248Z,6.80
2022-08-11T00:53:04.892Z,8.90
2022-08-11T00:56:01.498Z,5.30
2022-08-11T00:58:50.842Z,7.30
2022-08-11T01:01:46.584Z,5.30
2022-08-11T01:04:39.471Z,9.00
2022-08-11T01:11:06.408Z,6.70
2022-08-11T01:16:49.934Z,4.90
2022-08-11T01:20:47.803Z,5.40
2022-08-11T01:23:36.068Z,5.00
2022-08-11T01:26:32.319Z,7.50
2022-08-11T01:29:25.307Z,5.30
2022-08-11T01:32:52.111Z,6.30
2022-08-11T01:35:59.370Z,6.70
2022-08-11T01:39:09.972Z,6.40
2022-08-11T01:42:18.136Z,7.90
2022-08-11T01:45:37.953Z,4.80
2022-08-11T01:48:38.215Z,5.80
2022-08-11T01:51:23.521Z,5.10
2022-08-11T01:54:11.684Z,9.70
2022-08-11T01:57:40.822Z,4.30
2022-08-11T02:00:21.150Z,6.80
2022-08-11T02:03:21.375Z,6.00
2022-08-11T02:06:02.652Z,8.10
2022-08-11T02:08:59.196Z,6.70
2022-08-11T02:11:35.782Z,4.50
2022-08-11T02:15:04.591Z,6.60
2022-08-11T02:18:09.805Z,5.50
2022-08-11T02:21:10.459Z,6.70
2022-08-11T02:24:07.870Z,6.40
2022-08-11T02:26:55.019Z,5.50
2022-08-11T02:29:43.283Z,6.50
2022-08-11T02:33:07.536Z,6.30
2022-08-11T02:35:47.495Z,6.10
2022-08-11T02:38:45.387Z,6.50
2022-08-11T02:41:42.777Z,6.40
2022-08-11T02:44:32.877Z,6.10
2022-08-11T02:48:44.772Z,4.00
2022-08-11T02:51:41.187Z,9.80
2022-08-11T02:54:27.551Z,4.00
2022-08-11T02:57:35.588Z,5.60
2022-08-11T03:00:09.114Z,4.20
2022-08-11T03:03:02.961Z,7.40
2022-08-11T03:06:05.500Z,6.90
2022-08-11T03:08:55.042Z,4.30
2022-08-11T03:12:27.920Z,5.90
2022-08-11T03:15:25.993Z,4.30
2022-08-11T03:18:21.529Z,6.10
2022-08-11T03:21:05.696Z,8.10
2022-08-11T03:23:40.196Z,4.90
2022-08-11T03:26:33.619Z,4.60
2022-08-11T03:29:18.381Z,6.70
2022-08-11T03:32:06.419Z,4.50
2022-08-11T03:34:39.499Z,9.30
2022-08-11T03:37:53.105Z,7.00
2022-08-11T03:41:49.395Z,6.00
2022-08-11T03:45:02.357Z,5.80
2022-08-11T03:48:33.345Z,5.90
2022-08-11T03:52:14.653Z,6.90
2022-08-11T03:55:53.724Z,7.30
2022-08-11T03:59:04.609Z,5.80
2022-08-11T04:02:05.690Z,6.00
2022-08-11T04:05:13.152Z,4.50
2022-08-11T04:08:09.916Z,6.40
2022-08-11T04:11:23.549Z,5.00
2022-08-11T04:14:42.530Z,7.60
2022-08-11T04:18:15.103Z,6.10
2022-08-11T04:21:19.226Z,6.80
2022-08-11T04:24:34.847Z,5.80
2022-08-11T04:27:37.399Z,2.90
2022-08-11T04:30:57.990Z,4.50
2022-08-11T04:33:37.797Z,2.60
2022-08-11T04:37:15.594Z,3.70
2022-08-11T04:40:06.904Z,4.00
2022-08-11T04:43:18.270Z,6.10
2022-08-11T04:46:24.163Z,3.90
2022-08-11T04:49:57.625Z,7.50
2022-08-11T04:53:35.262Z,2.30
2022-08-11T04:56:36.062Z,4.60
2022-08-11T04:59:52.728Z,4.50
2022-08-11T05:03:08.908Z,9.00
2022-08-11T05:06:25.390Z,4.80
2022-08-11T05:10:20.649Z,4.00
2022-08-11T05:13:30.259Z,4.20
2022-08-11T05:16:30.830Z,7.40
2022-08-11T05:19:23.711Z,9.50
2022-08-11T05:22:16.360Z,5.00
2022-08-11T05:25:10.847Z,4.30
2022-08-11T05:28:24.012Z,7.70
2022-08-11T05:31:19.883Z,6.90
2022-08-11T05:34:29.371Z,3.90
2022-08-11T05:37:26.098Z,7.80
2022-08-11T05:40:33.831Z,4.70
2022-08-11T05:43:31.363Z,6.30
2022-08-11T05:46:26.585Z,6.80
2022-08-11T05:53:08.898Z,4.20
2022-08-11T05:56:03.951Z,5.90
2022-08-11T05:58:42.756Z,7.70
2022-08-11T06:01:21.806Z,3.70
2022-08-11T06:04:15.123Z,4.00
2022-08-11T06:09:56.352Z,3.60
2022-08-11T06:12:33.844Z,5.20
2022-08-11T06:15:27.746Z,4.70
2022-08-11T06:18:12.670Z,5.70
2022-08-11T06:20:56.550Z,4.30
2022-08-11T06:23:32.578Z,5.90
2022-08-11T06:26:01.862Z,4.60
2022-08-11T06:28:38.248Z,4.90
2022-08-11T06:31:24.266Z,6.60
2022-08-11T06:34:02.151Z,4.40
2022-08-11T06:37:14.845Z,5.00
2022-08-11T06:40:18.779Z,4.20
2022-08-11T06:44:16.570Z,4.40
2022-08-11T06:47:29.070Z,5.40
2022-08-11T06:52:00.704Z,8.40
2022-08-11T06:55:04.415Z,4.00
2022-08-11T06:57:58.342Z,5.50
2022-08-11T07:00:32.994Z,7.00
2022-08-11T07:03:10.821Z,6.80
2022-08-11T07:10:00.650Z,3.90
2022-08-11T07:13:02.498Z,3.90
2022-08-11T07:16:11.086Z,5.50
2022-08-11T07:19:00.099Z,4.50
2022-08-11T07:22:03.182Z,5.80
2022-08-11T07:25:49.137Z,6.30
2022-08-11T07:28:54.756Z,3.70
2022-08-11T07:31:42.843Z,3.40
2022-08-11T07:34:37.664Z,7.50
2022-08-11T07:37:18.533Z,3.90
2022-08-11T07:39:50.231Z,4.10
2022-08-11T07:42:27.550Z,3.80
2022-08-11T07:45:17.949Z,4.10
2022-08-11T07:48:50.065Z,3.80
2022-08-11T07:59:24.553Z,3.20
2022-08-11T08:02:44.067Z,5.50
2022-08-11T08:06:35.916Z,4.80
2022-08-11T08:12:48.445Z,4.40
2022-08-11T08:16:09.980Z,3.40
2022-08-11T08:18:56.222Z,3.60
2022-08-11T08:22:38.126Z,4.60
2022-08-11T08:25:08.412Z,3.20
2022-08-11T08:27:53.815Z,3.40
2022-08-11T08:30:45.173Z,5.50
2022-08-11T08:33:41.884Z,3.70
2022-08-11T08:36:17.021Z,6.40
2022-08-11T08:39:01.667Z,4.30
2022-08-11T08:41:41.705Z,3.00
2022-08-11T08:47:08.075Z,2.50
2022-08-11T08:49:49.303Z,3.40
2022-08-11T08:53:02.343Z,2.80
2022-08-11T08:55:45.451Z,2.80
2022-08-11T08:58:19.250Z,5.80
2022-08-11T09:01:27.000Z,4.80
2022-08-11T09:04:07.109Z,4.30
2022-08-11T09:07:17.550Z,3.60
2022-08-11T09:09:52.995Z,2.80
2022-08-11T09:12:46.404Z,2.80
2022-08-11T09:15:56.386Z,5.50
2022-08-11T09:18:33.739Z,2.80
2022-08-11T09:21:08.406Z,2.60
2022-08-11T09:24:55.778Z,3.00
2022-08-11T09:30:11.447Z,5.00
2022-08-11T09:33:01.448Z,2.60
2022-08-11T09:35:39.684Z,3.70
2022-08-11T09:38:32.706Z,3.40
2022-08-11T09:41:08.556Z,2.80
2022-08-11T09:44:24.911Z,5.00
2022-08-11T09:47:31.035Z,3.10
2022-08-11T09:50:10.375Z,2.10
2022-08-11T09:53:38.210Z,3.50
2022-08-11T09:56:54.798Z,2.90
2022-08-11T09:59:34.920Z,2.60
2022-08-11T10:02:12.618Z,2.10
2022-08-11T10:04:48.706Z,2.50
2022-08-11T10:07:20.230Z,2.70
2022-08-11T10:10:02.768Z,2.60
2022-08-11T10:14:30.867Z,3.00
2022-08-11T10:18:27.438Z,3.20
2022-08-11T10:21:16.098Z,3.50
2022-08-11T10:24:05.634Z,3.50
2022-08-11T10:26:53.968Z,5.20
2022-08-11T10:33:12.316Z,2.70
2022-08-11T10:36:48.666Z,5.10
2022-08-11T10:39:23.441Z,2.50
2022-08-11T10:42:21.019Z,2.80
2022-08-11T10:45:28.572Z,2.90
2022-08-11T10:47:59.164Z,2.60
2022-08-11T10:51:13.626Z,2.20
2022-08-11T10:54:18.166Z,6.60
2022-08-11T10:57:23.685Z,4.00
2022-08-11T11:00:22.905Z,4.70
2022-08-11T11:03:22.884Z,3.00
2022-08-11T11:06:55.820Z,4.50
2022-08-11T11:09:58.632Z,2.70
2022-08-11T11:15:53.403Z,2.90
2022-08-11T11:19:02.019Z,3.50
2022-08-11T11:21:45.736Z,2.70
2022-08-11T11:24:57.944Z,2.70
2022-08-11T11:28:18.594Z,3.10
2022-08-11T11:31:33.287Z,2.60
2022-08-11T11:35:02.468Z,6.60
2022-08-11T11:37:38.135Z,5.10
2022-08-11T11:40:13.951Z,3.20
2022-08-11T11:43:43.512Z,3.30
2022-08-11T11:46:19.905Z,3.40
2022-08-11T11:51:54.662Z,2.40
2022-08-11T11:54:28.080Z,2.50
2022-08-11T11:57:20.269Z,2.60
2022-08-11T12:00:13.771Z,2.70
2022-08-11T12:02:44.242Z,3.60
2022-08-11T12:05:15.033Z,2.50
2022-08-11T12:08:06.535Z,2.60
2022-08-11T12:11:48.745Z,4.50
2022-08-11T12:14:21.227Z,2.30
2022-08-11T12:16:50.491Z,3.60
2022-08-11T12:19:24.934Z,4.80
2022-08-11T12:22:56.801Z,2.70
2022-08-11T12:25:44.060Z,4.00
2022-08-11T12:28:13.589Z,3.80
2022-08-11T12:30:49.571Z,2.10
2022-08-11T12:33:23.888Z,1.90
2022-08-11T12:36:00.655Z,2.70
2022-08-11T12:38:33.467Z,3.20
2022-08-11T12:44:42.519Z,3.10
2022-08-11T12:47:16.643Z,2.30
2022-08-11T12:50:26.495Z,2.40
2022-08-11T12:52:57.176Z,2.10
2022-08-11T12:56:03.669Z,4.60
2022-08-11T12:58:34.113Z,3.10
2022-08-11T13:01:28.328Z,3.60
2022-08-11T13:04:50.073Z,1.90
2022-08-11T13:07:20.822Z,1.70
2022-08-11T13:09:51.032Z,4.10
2022-08-11T13:12:39.915Z,2.70
2022-08-11T13:15:14.266Z,2.50
2022-08-11T13:17:44.409Z,1.70
2022-08-11T13:20:17.609Z,3.10
2022-08-11T13:22:50.677Z,3.00
2022-08-11T13:25:24.504Z,2.20
2022-08-11T13:28:00.267Z,1.80
2022-08-11T13:30:51.613Z,2.60
2022-08-11T13:33:21.281Z,3.20
2022-08-11T13:35:54.115Z,1.80
2022-08-11T13:38:26.018Z,2.50
2022-08-11T13:41:01.435Z,3.20
2022-08-11T13:43:32.424Z,3.70
2022-08-11T13:46:22.865Z,2.20
2022-08-11T13:49:40.538Z,1.70
2022-08-11T13:52:21.145Z,2.70
2022-08-11T13:54:57.987Z,2.00
2022-08-11T13:58:08.324Z,2.20
2022-08-11T14:00:31.638Z,2.00
2022-08-11T14:03:02.697Z,1.90
2022-08-11T14:05:40.743Z,3.10
2022-08-11T14:08:37.775Z,1.90
2022-08-11T14:12:22.263Z,2.00
2022-08-11T14:14:57.278Z,2.60
2022-08-11T14:17:38.390Z,2.00
2022-08-11T14:20:39.660Z,1.70
2022-08-11T14:23:49.518Z,1.70
2022-08-11T14:26:31.466Z,2.80
2022-08-11T14:29:11.177Z,7.90
2022-08-11T14:31:47.696Z,8.90
2022-08-11T14:34:22.991Z,3.60
2022-08-11T14:37:03.215Z,1.80
2022-08-11T14:39:40.956Z,3.20
2022-08-11T14:42:36.255Z,2.50
2022-08-11T14:45:57.418Z,6.00
2022-08-11T14:48:38.077Z,3.00
2022-08-11T14:51:16.953Z,2.50
2022-08-11T14:53:58.229Z,2.70
2022-08-11T14:56:37.536Z,2.80
2022-08-11T14:59:09.659Z,2.30
2022-08-11T15:02:18.447Z,4.40
2022-08-11T15:04:53.342Z,1.60
2022-08-11T15:07:31.426Z,1.40
2022-08-11T15:10:13.013Z,2.60
2022-08-11T15:13:06.092Z,2.10
2022-08-11T15:15:54.610Z,1.90
2022-08-11T15:18:24.418Z,1.30
2022-08-11T15:21:35.280Z,1.60
2022-08-11T15:24:25.287Z,1.60
2022-08-11T15:27:52.105Z,1.40
2022-08-11T15:30:52.066Z,4.70
2022-08-11T15:34:29.760Z,2.10
2022-08-11T15:37:52.863Z,1.70
2022-08-11T15:40:57.883Z,1.70
2022-08-11T15:44:05.120Z,2.80
2022-08-11T15:47:31.203Z,2.70
2022-08-11T15:51:20.881Z,2.20
2022-08-11T15:54:34.736Z,2.00
2022-08-11T16:01:16.686Z,2.70
2022-08-11T16:04:52.469Z,2.40
2022-08-11T16:07:54.280Z,2.60
2022-08-11T16:10:52.306Z,1.40
2022-08-11T16:16:21.199Z,2.00
2022-08-11T16:21:40.577Z,1.30
2022-08-11T16:27:03.579Z,1.70
2022-08-11T16:27:13.408Z,1.70
2022-08-11T16:29:48.096Z,1.40
2022-08-11T16:32:23.957Z,2.60
2022-08-11T16:35:22.215Z,2.00
2022-08-11T16:38:12.098Z,1.80
2022-08-11T16:40:43.072Z,2.70
2022-08-11T16:43:37.024Z,1.60
2022-08-11T16:46:26.833Z,2.70
2022-08-11T16:48:57.277Z,3.80
2022-08-11T16:51:26.278Z,1.70
2022-08-11T16:54:04.403Z,1.80
2022-08-11T16:56:51.381Z,1.70
2022-08-11T16:59:37.165Z,3.20
2022-08-11T17:02:38.771Z,1.50
2022-08-11T17:05:32.289Z,2.80
2022-08-11T17:08:24.295Z,2.80
2022-08-11T17:17:39.521Z,3.10
2022-08-11T17:20:39.607Z,2.20
2022-08-11T17:23:39.791Z,1.80
2022-08-11T17:30:32.518Z,3.30
2022-08-11T17:34:07.971Z,2.80
2022-08-11T17:36:45.784Z,3.00
2022-08-11T17:39:37.481Z,2.50
2022-08-11T17:42:36.110Z,2.30
2022-08-11T17:45:25.281Z,2.50
2022-08-11T17:48:17.356Z,3.70
2022-08-11T17:50:59.639Z,2.00
2022-08-11T17:54:23.549Z,4.40
2022-08-11T17:57:21.100Z,2.30
2022-08-11T18:00:06.122Z,2.40
2022-08-11T18:03:04.591Z,2.80
2022-08-11T18:05:43.839Z,3.40
2022-08-11T18:08:33.163Z,3.00
2022-08-11T18:12:07.448Z,2.70
2022-08-11T18:14:37.041Z,5.50
2022-08-11T18:17:44.034Z,2.50
2022-08-11T18:20:43.198Z,4.10
2022-08-11T18:23:47.174Z,2.80
2022-08-11T18:26:45.053Z,3.80
2022-08-11T18:29:41.824Z,2.80
2022-08-11T18:33:24.986Z,3.20
2022-08-11T18:36:31.935Z,3.60
2022-08-11T18:39:22.422Z,4.80
2022-08-11T18:42:28.736Z,5.40
2022-08-11T18:45:45.463Z,2.90
2022-08-11T18:48:42.568Z,3.50
2022-08-11T18:52:22.177Z,5.20
2022-08-11T18:55:23.035Z,5.50
2022-08-11T18:58:12.636Z,5.00
2022-08-11T19:01:02.797Z,4.80
2022-08-11T19:07:20.543Z,5.50
2022-08-11T19:10:09.111Z,4.10
2022-08-11T19:13:01.209Z,4.90
2022-08-11T19:15:49.666Z,4.70
2022-08-11T19:18:41.073Z,5.40
2022-08-11T19:21:31.088Z,4.60
2022-08-11T19:24:23.151Z,8.90
2022-08-11T19:27:13.145Z,5.00
2022-08-11T19:30:04.746Z,5.70
2022-08-11T19:33:05.279Z,5.60
2022-08-11T19:35:53.700Z,6.10
2022-08-11T19:38:41.618Z,4.60
2022-08-11T19:41:56.234Z,6.60
2022-08-11T19:44:42.377Z,5.50
2022-08-11T19:47:32.719Z,5.50
2022-08-11T19:50:24.454Z,5.20
2022-08-11T19:53:16.920Z,5.30
2022-08-11T19:56:18.239Z,5.40
2022-08-11T19:59:09.981Z,5.10
2022-08-11T20:02:01.449Z,9.00
2022-08-11T20:05:01.741Z,5.50
2022-08-11T20:07:55.458Z,6.80
2022-08-11T20:10:49.050Z,6.10
2022-08-11T20:14:04.395Z,5.30
2022-08-11T20:17:14.319Z,5.30
2022-08-11T20:20:35.037Z,5.70
2022-08-11T20:23:27.550Z,6.20
2022-08-11T20:29:33.999Z,6.00
2022-08-11T20:32:21.439Z,6.00
2022-08-11T20:35:49.271Z,5.30
2022-08-11T20:39:10.971Z,6.00
2022-08-11T20:42:08.124Z,4.60
2022-08-11T20:45:02.458Z,7.40
2022-08-11T20:49:01.232Z,6.50
2022-08-11T20:51:52.974Z,5.70
2022-08-11T20:54:45.727Z,5.90
2022-08-11T20:58:00.269Z,5.80
2022-08-11T21:00:47.896Z,5.40
2022-08-11T21:03:45.271Z,5.20
2022-08-11T21:06:44.739Z,8.50
2022-08-11T21:09:58.342Z,5.90
2022-08-11T21:12:44.461Z,5.30
2022-08-11T21:16:02.838Z,6.30
2022-08-11T21:18:53.742Z,5.50
2022-08-11T21:21:59.309Z,5.00
2022-08-11T21:24:50.933Z,5.10
2022-08-11T21:27:40.537Z,7.20
2022-08-11T21:30:28.555Z,5.50
2022-08-11T21:33:32.908Z,5.30
2022-08-11T21:37:08.836Z,5.80
2022-08-11T21:39:57.777Z,5.30
2022-08-11T21:43:26.082Z,4.60
2022-08-11T21:46:53.821Z,9.60
2022-08-11T21:49:55.739Z,6.40
2022-08-11T21:52:59.687Z,6.50
2022-08-11T21:56:10.218Z,5.40
2022-08-11T21:59:06.903Z,5.90
2022-08-11T22:01:55.434Z,8.70
2022-08-11T22:04:44.021Z,5.70
2022-08-11T22:07:32.306Z,5.80
2022-08-11T22:10:40.551Z,5.20
2022-08-11T22:13:31.538Z,5.60
2022-08-11T22:16:19.324Z,5.70
2022-08-11T22:19:09.600Z,6.80
2022-08-11T22:22:04.221Z,6.00
2022-08-11T22:24:53.364Z,7.40
2022-08-11T22:27:41.316Z,5.00
2022-08-11T22:30:30.659Z,7.10
2022-08-11T22:33:20.951Z,5.80
2022-08-11T22:36:14.513Z,7.40
2022-08-11T22:39:03.806Z,6.20
2022-08-11T22:41:51.219Z,8.00
2022-08-11T22:44:38.392Z,6.50
2022-08-11T22:47:30.259Z,6.70
2022-08-11T22:50:26.871Z,6.30
2022-08-11T22:53:16.704Z,6.50
2022-08-11T22:56:05.123Z,7.10
2022-08-11T22:58:53.530Z,7.90
2022-08-11T23:01:55.377Z,7.70
2022-08-11T23:04:44.216Z,7.90
2022-08-11T23:07:50.248Z,7.20
2022-08-11T23:10:42.747Z,6.70
2022-08-11T23:13:34.786Z,5.70
2022-08-11T23:16:23.291Z,7.10
2022-08-11T23:19:10.566Z,7.10
2022-08-11T23:21:58.553Z,7.40
2022-08-11T23:24:46.559Z,7.00
2022-08-11T23:27:34.203Z,6.00
2022-08-11T23:30:23.186Z,6.50
2022-08-11T23:33:17.483Z,7.20
2022-08-11T23:36:10.060Z,7.30
2022-08-11T23:39:17.633Z,6.30
2022-08-11T23:42:05.005Z,9.90
2022-08-11T23:44:52.363Z,8.40
2022-08-11T23:47:50.156Z,7.50
2022-08-11T23:50:39.437Z,8.20
2022-08-11T23:53:27.381Z,6.90
2022-08-11T23:56:14.753Z,7.10
2022-08-11T23:59:02.617Z,6.40
